sensor_id;sensor_type;location;lat;lon;timestamp;pressure;altitude;pressure_sealevel;temperature;humidity
75221;BME280;63802;53.232;6.570;2023-02-23T00:01:09;101313.72;;;6.54;93.16
75221;BME280;63802;53.232;6.570;2023-02-23T00:03:34;101321.38;;;6.52;93.29
75221;BME280;63802;53.232;6.570;2023-02-23T00:06:02;101311.00;;;6.46;92.96
75221;BME280;63802;53.232;6.570;2023-02-23T00:08:27;101304.97;;;6.40;92.91
75221;BME280;63802;53.232;6.570;2023-02-23T00:10:53;101327.09;;;6.59;93.45
75221;BME280;63802;53.232;6.570;2023-02-23T00:13:22;101327.56;;;6.61;92.97
75221;BME280;63802;53.232;6.570;2023-02-23T00:15:48;101328.03;;;6.63;93.06
75221;BME280;63802;53.232;6.570;2023-02-23T00:18:13;101319.44;;;6.61;93.34
75221;BME280;63802;53.232;6.570;2023-02-23T00:20:38;101317.03;;;6.60;93.23
75221;BME280;63802;53.232;6.570;2023-02-23T00:23:08;101318.44;;;6.66;93.14
75221;BME280;63802;53.232;6.570;2023-02-23T00:25:37;101325.78;;;6.65;93.40
75221;BME280;63802;53.232;6.570;2023-02-23T00:28:03;101319.56;;;6.65;93.12
75221;BME280;63802;53.232;6.570;2023-02-23T00:30:31;101313.84;;;6.58;93.16
75221;BME280;63802;53.232;6.570;2023-02-23T00:32:56;101322.78;;;6.67;93.30
75221;BME280;63802;53.232;6.570;2023-02-23T00:35:22;101314.31;;;6.68;92.98
75221;BME280;63802;53.232;6.570;2023-02-23T00:37:49;101321.97;;;6.66;93.04
75221;BME280;63802;53.232;6.570;2023-02-23T00:40:16;101309.06;;;6.63;93.31
75221;BME280;63802;53.232;6.570;2023-02-23T00:42:45;101294.09;;;6.57;93.27
75221;BME280;63802;53.232;6.570;2023-02-23T00:45:11;101298.19;;;6.63;93.29
75221;BME280;63802;53.232;6.570;2023-02-23T00:47:42;101300.28;;;6.66;92.99
75221;BME280;63802;53.232;6.570;2023-02-23T00:50:11;101285.13;;;6.65;93.34
75221;BME280;63802;53.232;6.570;2023-02-23T00:52:38;101292.94;;;6.67;93.17
75221;BME280;63802;53.232;6.570;2023-02-23T00:55:08;101287.53;;;6.58;93.25
75221;BME280;63802;53.232;6.570;2023-02-23T00:57:35;101287.69;;;6.62;93.61
75221;BME280;63802;53.232;6.570;2023-02-23T01:00:01;101274.16;;;6.53;93.25
75221;BME280;63802;53.232;6.570;2023-02-23T01:02:37;101300.28;;;6.66;93.48
75221;BME280;63802;53.232;6.570;2023-02-23T01:05:02;101307.13;;;6.64;93.40
75221;BME280;63802;53.232;6.570;2023-02-23T01:07:28;101309.50;;;6.65;93.69
75221;BME280;63802;53.232;6.570;2023-02-23T01:09:53;101296.28;;;6.64;93.41
75221;BME280;63802;53.232;6.570;2023-02-23T01:12:18;101306.81;;;6.65;93.52
75221;BME280;63802;53.232;6.570;2023-02-23T01:14:44;101305.69;;;6.66;93.48
75221;BME280;63802;53.232;6.570;2023-02-23T01:17:10;101303.44;;;6.68;93.71
75221;BME280;63802;53.232;6.570;2023-02-23T01:19:35;101304.91;;;6.66;93.68
75221;BME280;63802;53.232;6.570;2023-02-23T01:22:01;101307.28;;;6.67;93.76
75221;BME280;63802;53.232;6.570;2023-02-23T01:24:27;101309.97;;;6.67;93.82
75221;BME280;63802;53.232;6.570;2023-02-23T01:26:53;101315.09;;;6.69;93.72
75221;BME280;63802;53.232;6.570;2023-02-23T01:29:19;101318.91;;;6.68;93.75
75221;BME280;63802;53.232;6.570;2023-02-23T01:31:46;101318.13;;;6.67;93.73
75221;BME280;63802;53.232;6.570;2023-02-23T01:34:13;101309.97;;;6.67;93.98
75221;BME280;63802;53.232;6.570;2023-02-23T01:36:41;101307.59;;;6.66;93.61
75221;BME280;63802;53.232;6.570;2023-02-23T01:39:12;101323.53;;;6.67;93.50
75221;BME280;63802;53.232;6.570;2023-02-23T01:41:38;101317.00;;;6.68;93.75
75221;BME280;63802;53.232;6.570;2023-02-23T01:46:39;101319.25;;;6.66;94.16
75221;BME280;63802;53.232;6.570;2023-02-23T01:49:07;101308.72;;;6.65;93.94
75221;BME280;63802;53.232;6.570;2023-02-23T01:51:36;101301.56;;;6.60;93.89
75221;BME280;63802;53.232;6.570;2023-02-23T01:54:11;101310.03;;;6.59;94.23
75221;BME280;63802;53.232;6.570;2023-02-23T01:56:41;101321.81;;;6.63;94.06
75221;BME280;63802;53.232;6.570;2023-02-23T01:59:09;101318.16;;;6.59;94.34
75221;BME280;63802;53.232;6.570;2023-02-23T02:01:37;101323.72;;;6.62;94.03
75221;BME280;63802;53.232;6.570;2023-02-23T02:04:05;101328.03;;;6.63;94.49
75221;BME280;63802;53.232;6.570;2023-02-23T02:06:34;101331.84;;;6.62;94.30
75221;BME280;63802;53.232;6.570;2023-02-23T02:09:03;101323.91;;;6.57;94.02
75221;BME280;63802;53.232;6.570;2023-02-23T02:11:33;101334.09;;;6.60;94.41
75221;BME280;63802;53.232;6.570;2023-02-23T02:14:09;101325.50;;;6.58;94.25
75221;BME280;63802;53.232;6.570;2023-02-23T02:25:33;101337.59;;;6.61;94.49
75221;BME280;63802;53.232;6.570;2023-02-23T02:38:53;101340.47;;;6.64;94.42
75221;BME280;63802;53.232;6.570;2023-02-23T02:41:47;101334.09;;;6.60;94.56
75221;BME280;63802;53.232;6.570;2023-02-23T02:44:43;101324.97;;;6.65;94.56
75221;BME280;63802;53.232;6.570;2023-02-23T02:47:25;101328.84;;;6.64;94.31
75221;BME280;63802;53.232;6.570;2023-02-23T02:50:16;101322.44;;;6.60;94.37
75221;BME280;63802;53.232;6.570;2023-02-23T02:52:54;101314.50;;;6.55;94.79
75221;BME280;63802;53.232;6.570;2023-02-23T02:55:24;101328.66;;;6.60;94.35
75221;BME280;63802;53.232;6.570;2023-02-23T02:57:52;101334.09;;;6.60;94.45
75221;BME280;63802;53.232;6.570;2023-02-23T03:00:26;101328.66;;;6.60;94.79
75221;BME280;63802;53.232;6.570;2023-02-23T03:03:32;101327.09;;;6.59;94.58
75221;BME280;63802;53.232;6.570;2023-02-23T03:06:19;101336.00;;;6.60;94.82
75221;BME280;63802;53.232;6.570;2023-02-23T03:09:17;101330.28;;;6.61;94.46
75221;BME280;63802;53.232;6.570;2023-02-23T03:12:25;101332.66;;;6.63;94.90
75221;BME280;63802;53.232;6.570;2023-02-23T03:15:20;101329.47;;;6.61;94.88
75221;BME280;63802;53.232;6.570;2023-02-23T03:21:25;101327.72;;;6.56;94.77
75221;BME280;63802;53.232;6.570;2023-02-23T03:27:29;101333.16;;;6.56;95.42
75221;BME280;63802;53.232;6.570;2023-02-23T03:30:31;101334.75;;;6.57;95.01
75221;BME280;63802;53.232;6.570;2023-02-23T03:33:29;101335.41;;;6.54;95.19
75221;BME280;63802;53.232;6.570;2023-02-23T03:36:19;101339.69;;;6.55;95.03
75221;BME280;63802;53.232;6.570;2023-02-23T03:42:01;101343.06;;;6.52;95.20
75221;BME280;63802;53.232;6.570;2023-02-23T03:44:47;101342.25;;;6.52;95.27
75221;BME280;63802;53.232;6.570;2023-02-23T03:47:36;101356.44;;;6.57;94.96
75221;BME280;63802;53.232;6.570;2023-02-23T03:50:28;101352.75;;;6.53;95.20
75221;BME280;63802;53.232;6.570;2023-02-23T03:53:17;101349.59;;;6.51;95.29
75221;BME280;63802;53.232;6.570;2023-02-23T03:56:02;101353.91;;;6.52;95.28
75221;BME280;63802;53.232;6.570;2023-02-23T03:58:51;101355.47;;;6.53;95.63
75221;BME280;63802;53.232;6.570;2023-02-23T04:01:37;101355.47;;;6.53;95.54
75221;BME280;63802;53.232;6.570;2023-02-23T04:04:23;101359.31;;;6.52;95.72
75221;BME280;63802;53.232;6.570;2023-02-23T04:07:09;101363.63;;;6.53;95.37
75221;BME280;63802;53.232;6.570;2023-02-23T04:09:54;101353.09;;;6.52;95.54
75221;BME280;63802;53.232;6.570;2023-02-23T04:15:51;101363.94;;;6.52;95.91
75221;BME280;63802;53.232;6.570;2023-02-23T04:18:24;101369.03;;;6.53;95.83
75221;BME280;63802;53.232;6.570;2023-02-23T04:20:50;101366.66;;;6.52;95.66
75221;BME280;63802;53.232;6.570;2023-02-23T04:23:16;101364.59;;;6.49;95.68
75221;BME280;63802;53.232;6.570;2023-02-23T04:25:43;101357.38;;;6.53;95.79
75221;BME280;63802;53.232;6.570;2023-02-23T04:28:08;101361.69;;;6.54;95.69
75221;BME280;63802;53.232;6.570;2023-02-23T04:30:34;101360.91;;;6.53;95.61
75221;BME280;63802;53.232;6.570;2023-02-23T04:32:59;101354.53;;;6.49;95.85
75221;BME280;63802;53.232;6.570;2023-02-23T04:35:26;101356.63;;;6.52;95.96
75221;BME280;63802;53.232;6.570;2023-02-23T04:37:53;101348.66;;;6.39;95.97
75221;BME280;63802;53.232;6.570;2023-02-23T04:40:18;101368.22;;;6.53;96.06
75221;BME280;63802;53.232;6.570;2023-02-23T04:42:44;101348.47;;;6.44;95.92
75221;BME280;63802;53.232;6.570;2023-02-23T04:45:09;101363.31;;;6.55;95.93
75221;BME280;63802;53.232;6.570;2023-02-23T04:47:35;101362.66;;;6.49;95.82
75221;BME280;63802;53.232;6.570;2023-02-23T04:50:01;101356.78;;;6.47;96.06
75221;BME280;63802;53.232;6.570;2023-02-23T04:52:26;101356.47;;;6.40;96.04
75221;BME280;63802;53.232;6.570;2023-02-23T04:54:52;101360.59;;;6.46;95.80
75221;BME280;63802;53.232;6.570;2023-02-23T04:57:17;101354.22;;;6.42;95.53
75221;BME280;63802;53.232;6.570;2023-02-23T04:59:43;101366.19;;;6.50;95.81
75221;BME280;63802;53.232;6.570;2023-02-23T05:02:08;101369.66;;;6.50;95.91
75221;BME280;63802;53.232;6.570;2023-02-23T05:04:34;101375.59;;;6.52;96.20
75221;BME280;63802;53.232;6.570;2023-02-23T05:07:00;101376.06;;;6.54;96.00
75221;BME280;63802;53.232;6.570;2023-02-23T05:09:25;101363.63;;;6.45;95.87
75221;BME280;63802;53.232;6.570;2023-02-23T05:11:51;101377.81;;;6.50;96.28
75221;BME280;63802;53.232;6.570;2023-02-23T05:14:16;101374.00;;;6.51;96.32
75221;BME280;63802;53.232;6.570;2023-02-23T05:16:42;101371.78;;;6.45;96.21
75221;BME280;63802;53.232;6.570;2023-02-23T05:19:07;101382.59;;;6.53;95.94
75221;BME280;63802;53.232;6.570;2023-02-23T05:21:33;101390.25;;;6.51;96.18
75221;BME280;63802;53.232;6.570;2023-02-23T05:23:59;101370.50;;;6.42;96.10
75221;BME280;63802;53.232;6.570;2023-02-23T05:26:26;101385.63;;;6.52;95.95
75221;BME280;63802;53.232;6.570;2023-02-23T05:28:52;101373.22;;;6.42;96.04
75221;BME280;63802;53.232;6.570;2023-02-23T05:31:18;101390.88;;;6.48;96.12
75221;BME280;63802;53.232;6.570;2023-02-23T05:33:44;101381.94;;;6.48;96.01
75221;BME280;63802;53.232;6.570;2023-02-23T05:36:15;101388.34;;;6.43;95.90
75221;BME280;63802;53.232;6.570;2023-02-23T05:38:41;101389.16;;;6.44;95.69
75221;BME280;63802;53.232;6.570;2023-02-23T05:41:08;101389.94;;;6.44;95.62
75221;BME280;63802;53.232;6.570;2023-02-23T05:43:34;101400.16;;;6.47;95.79
75221;BME280;63802;53.232;6.570;2023-02-23T05:46:00;101398.53;;;6.46;95.66
75221;BME280;63802;53.232;6.570;2023-02-23T05:48:27;101394.72;;;6.47;96.00
75221;BME280;63802;53.232;6.570;2023-02-23T05:50:52;101390.88;;;6.48;95.87
75221;BME280;63802;53.232;6.570;2023-02-23T05:53:18;101388.66;;;6.50;95.63
75221;BME280;63802;53.232;6.570;2023-02-23T05:55:43;101387.88;;;6.50;95.70
75221;BME280;63802;53.232;6.570;2023-02-23T05:58:09;101383.72;;;6.44;95.67
75221;BME280;63802;53.232;6.570;2023-02-23T06:00:34;101388.84;;;6.45;95.58
75221;BME280;63802;53.232;6.570;2023-02-23T06:02:59;101378.16;;;6.40;95.21
75221;BME280;63802;53.232;6.570;2023-02-23T06:05:25;101371.00;;;6.36;95.37
75221;BME280;63802;53.232;6.570;2023-02-23T06:07:50;101399.03;;;6.48;95.06
75221;BME280;63802;53.232;6.570;2023-02-23T06:10:16;101401.09;;;6.51;94.89
75221;BME280;63802;53.232;6.570;2023-02-23T06:12:42;101403.81;;;6.51;94.87
75221;BME280;63802;53.232;6.570;2023-02-23T06:15:10;101404.91;;;6.50;94.70
75221;BME280;63802;53.232;6.570;2023-02-23T06:17:36;101391.56;;;6.45;94.50
75221;BME280;63802;53.232;6.570;2023-02-23T06:20:02;101399.50;;;6.50;94.92
75221;BME280;63802;53.232;6.570;2023-02-23T06:22:29;101404.78;;;6.47;94.50
75221;BME280;63802;53.232;6.570;2023-02-23T06:24:55;101397.75;;;6.37;94.44
75221;BME280;63802;53.232;6.570;2023-02-23T06:27:21;101414.81;;;6.46;94.48
75221;BME280;63802;53.232;6.570;2023-02-23T06:29:47;101401.09;;;6.34;94.21
75221;BME280;63802;53.232;6.570;2023-02-23T06:32:12;101413.56;;;6.35;94.05
75221;BME280;63802;53.232;6.570;2023-02-23T06:34:38;101422.47;;;6.44;94.17
75221;BME280;63802;53.232;6.570;2023-02-23T06:37:04;101427.44;;;6.42;93.99
75221;BME280;63802;53.232;6.570;2023-02-23T06:39:30;101414.00;;;6.29;93.84
75221;BME280;63802;53.232;6.570;2023-02-23T06:41:56;101431.72;;;6.43;94.03
75221;BME280;63802;53.232;6.570;2023-02-23T06:44:21;101424.88;;;6.37;94.09
75221;BME280;63802;53.232;6.570;2023-02-23T06:46:47;101442.72;;;6.38;94.05
75221;BME280;63802;53.232;6.570;2023-02-23T06:49:12;101447.19;;;6.43;93.85
75221;BME280;63802;53.232;6.570;2023-02-23T06:51:38;101451.00;;;6.42;93.55
75221;BME280;63802;53.232;6.570;2023-02-23T06:54:03;101455.63;;;6.41;93.49
75221;BME280;63802;53.232;6.570;2023-02-23T06:56:28;101453.72;;;6.42;93.39
75221;BME280;63802;53.232;6.570;2023-02-23T06:58:54;101454.06;;;6.40;93.43
75221;BME280;63802;53.232;6.570;2023-02-23T07:01:19;101439.69;;;6.31;93.51
75221;BME280;63802;53.232;6.570;2023-02-23T07:03:45;101441.75;;;6.34;93.32
75221;BME280;63802;53.232;6.570;2023-02-23T07:06:11;101463.78;;;6.41;93.29
75221;BME280;63802;53.232;6.570;2023-02-23T07:08:36;101464.91;;;6.40;93.32
75221;BME280;63802;53.232;6.570;2023-02-23T07:13:31;101471.91;;;6.41;93.10
75221;BME280;63802;53.232;6.570;2023-02-23T07:15:56;101462.00;;;6.37;93.00
75221;BME280;63802;53.232;6.570;2023-02-23T07:18:22;101476.84;;;6.39;93.05
75221;BME280;63802;53.232;6.570;2023-02-23T07:20:49;101474.94;;;6.40;93.30
75221;BME280;63802;53.232;6.570;2023-02-23T07:23:16;101466.63;;;6.28;92.88
75221;BME280;63802;53.232;6.570;2023-02-23T07:25:42;101476.53;;;6.32;92.56
75221;BME280;63802;53.232;6.570;2023-02-23T07:28:07;101474.91;;;6.31;92.42
75221;BME280;63802;53.232;6.570;2023-02-23T07:30:33;101485.59;;;6.36;92.76
75221;BME280;63802;53.232;6.570;2023-02-23T07:32:58;101500.00;;;6.45;92.85
75221;BME280;63802;53.232;6.570;2023-02-23T07:35:24;101488.63;;;6.43;92.94
75221;BME280;63802;53.232;6.570;2023-02-23T07:37:49;101496.00;;;6.43;92.68
75221;BME280;63802;53.232;6.570;2023-02-23T07:40:15;101504.28;;;6.46;92.38
75221;BME280;63802;53.232;6.570;2023-02-23T07:42:40;101500.75;;;6.46;92.41
75221;BME280;63802;53.232;6.570;2023-02-23T07:45:06;101494.06;;;6.35;92.07
75221;BME280;63802;53.232;6.570;2023-02-23T07:47:35;101516.72;;;6.47;92.09
75221;BME280;63802;53.232;6.570;2023-02-23T07:50:04;101511.78;;;6.49;91.93
75221;BME280;63802;53.232;6.570;2023-02-23T07:52:34;101504.13;;;6.43;92.05
75221;BME280;63802;53.232;6.570;2023-02-23T07:54:59;101507.47;;;6.48;92.31
75221;BME280;63802;53.232;6.570;2023-02-23T07:57:25;101514.78;;;6.48;91.99
75221;BME280;63802;53.232;6.570;2023-02-23T07:59:51;101520.72;;;6.50;92.11
75221;BME280;63802;53.232;6.570;2023-02-23T08:02:16;101523.25;;;6.46;92.35
75221;BME280;63802;53.232;6.570;2023-02-23T08:04:42;101520.88;;;6.45;92.01
75221;BME280;63802;53.232;6.570;2023-02-23T08:07:08;101518.16;;;6.53;92.27
75221;BME280;63802;53.232;6.570;2023-02-23T08:09:34;101528.69;;;6.46;92.38
75221;BME280;63802;53.232;6.570;2023-02-23T08:12:01;101527.09;;;6.45;92.29
75221;BME280;63802;53.232;6.570;2023-02-23T08:14:27;101525.50;;;6.44;92.44
75221;BME280;63802;53.232;6.570;2023-02-23T08:16:52;101533.94;;;6.43;92.34
75221;BME280;63802;53.232;6.570;2023-02-23T08:19:18;101540.81;;;6.40;92.60
75221;BME280;63802;53.232;6.570;2023-02-23T08:21:47;101526.25;;;6.28;92.67
75221;BME280;63802;53.232;6.570;2023-02-23T08:24:12;101539.19;;;6.39;92.72
75221;BME280;63802;53.232;6.570;2023-02-23T08:26:38;101530.72;;;6.32;92.77
75221;BME280;63802;53.232;6.570;2023-02-23T08:29:04;101534.41;;;6.36;92.98
75221;BME280;63802;53.232;6.570;2023-02-23T08:31:29;101543.19;;;6.42;92.96
75221;BME280;63802;53.232;6.570;2023-02-23T08:33:54;101529.63;;;6.33;92.67
75221;BME280;63802;53.232;6.570;2023-02-23T08:36:20;101530.59;;;6.37;92.88
75221;BME280;63802;53.232;6.570;2023-02-23T08:38:46;101537.44;;;6.43;93.09
75221;BME280;63802;53.232;6.570;2023-02-23T08:41:12;101539.66;;;6.41;92.97
75221;BME280;63802;53.232;6.570;2023-02-23T08:43:38;101531.06;;;6.31;93.32
75221;BME280;63802;53.232;6.570;2023-02-23T08:46:04;101549.41;;;6.42;93.17
75221;BME280;63802;53.232;6.570;2023-02-23T08:48:30;101553.41;;;6.45;93.17
75221;BME280;63802;53.232;6.570;2023-02-23T08:50:57;101556.91;;;6.45;93.18
75221;BME280;63802;53.232;6.570;2023-02-23T08:53:24;101543.00;;;6.38;93.35
75221;BME280;63802;53.232;6.570;2023-02-23T08:56:01;101552.44;;;6.49;92.94
75221;BME280;63802;53.232;6.570;2023-02-23T08:58:28;101566.34;;;6.56;92.91
75221;BME280;63802;53.232;6.570;2023-02-23T09:00:55;101566.81;;;6.58;93.39
75221;BME280;63802;53.232;6.570;2023-02-23T09:03:21;101559.31;;;6.64;93.36
75221;BME280;63802;53.232;6.570;2023-02-23T09:05:47;101560.59;;;6.66;92.81
75221;BME280;63802;53.232;6.570;2023-02-23T09:08:13;101557.75;;;6.71;93.14
75221;BME280;63802;53.232;6.570;2023-02-23T09:10:39;101563.94;;;6.72;93.14
75221;BME280;63802;53.232;6.570;2023-02-23T09:13:08;101562.50;;;6.74;92.95
75221;BME280;63802;53.232;6.570;2023-02-23T09:15:34;101562.66;;;6.69;92.95
75221;BME280;63802;53.232;6.570;2023-02-23T09:18:00;101580.38;;;6.75;93.01
75221;BME280;63802;53.232;6.570;2023-02-23T09:20:26;101559.50;;;6.76;92.95
75221;BME280;63802;53.232;6.570;2023-02-23T09:22:52;101558.22;;;6.82;92.75
75221;BME280;63802;53.232;6.570;2023-02-23T09:25:18;101558.84;;;6.96;92.82
75221;BME280;63802;53.232;6.570;2023-02-23T09:27:54;101571.44;;;7.18;92.60
75221;BME280;63802;53.232;6.570;2023-02-23T09:30:25;101561.38;;;7.27;92.53
75221;BME280;63802;53.232;6.570;2023-02-23T09:32:53;101564.72;;;7.41;92.14
75221;BME280;63802;53.232;6.570;2023-02-23T09:35:20;101559.41;;;7.44;92.17
75221;BME280;63802;53.232;6.570;2023-02-23T09:37:47;101546.69;;;7.36;92.06
75221;BME280;63802;53.232;6.570;2023-02-23T09:40:15;101569.78;;;7.51;91.73
75221;BME280;63802;53.232;6.570;2023-02-23T09:42:47;101573.13;;;7.57;91.34
75221;BME280;63802;53.232;6.570;2023-02-23T09:45:40;101579.66;;;7.64;91.35
75221;BME280;63802;53.232;6.570;2023-02-23T09:48:16;101576.31;;;7.67;91.49
75221;BME280;63802;53.232;6.570;2023-02-23T09:50:46;101573.25;;;7.77;91.11
75221;BME280;63802;53.232;6.570;2023-02-23T09:56:09;101582.28;;;7.90;90.92
75221;BME280;63802;53.232;6.570;2023-02-23T09:58:35;101582.44;;;7.93;90.53
75221;BME280;63802;53.232;6.570;2023-02-23T10:03:59;101573.41;;;8.10;90.16
75221;BME280;63802;53.232;6.570;2023-02-23T10:06:29;101572.72;;;8.22;90.05
75221;BME280;63802;53.232;6.570;2023-02-23T10:09:18;101587.78;;;8.28;89.35
75221;BME280;63802;53.232;6.570;2023-02-23T10:12:12;101572.88;;;8.25;89.06
75221;BME280;63802;53.232;6.570;2023-02-23T10:15:14;101586.50;;;8.17;88.97
75221;BME280;63802;53.232;6.570;2023-02-23T10:18:02;101596.63;;;8.07;88.79
75221;BME280;63802;53.232;6.570;2023-02-23T10:21:04;101598.88;;;8.05;88.79
75221;BME280;63802;53.232;6.570;2023-02-23T10:23:42;101593.59;;;8.00;88.85
75221;BME280;63802;53.232;6.570;2023-02-23T10:26:15;101603.69;;;8.00;88.32
75221;BME280;63802;53.232;6.570;2023-02-23T10:28:41;101593.97;;;7.90;88.62
75221;BME280;63802;53.232;6.570;2023-02-23T10:31:49;101601.84;;;7.75;88.58
75221;BME280;63802;53.232;6.570;2023-02-23T10:34:15;101605.19;;;7.80;88.26
75221;BME280;63802;53.232;6.570;2023-02-23T10:37:00;101598.81;;;7.76;87.95
75221;BME280;63802;53.232;6.570;2023-02-23T10:39:28;101598.50;;;7.69;88.11
75221;BME280;63802;53.232;6.570;2023-02-23T10:42:01;101597.63;;;7.94;87.61
75221;BME280;63802;53.232;6.570;2023-02-23T10:44:30;101595.84;;;7.98;87.46
75221;BME280;63802;53.232;6.570;2023-02-23T10:47:02;101589.63;;;7.98;87.29
75221;BME280;63802;53.232;6.570;2023-02-23T10:49:43;101601.44;;;8.02;87.38
75221;BME280;63802;53.232;6.570;2023-02-23T10:52:14;101608.97;;;7.96;87.09
75221;BME280;63802;53.232;6.570;2023-02-23T10:54:44;101615.19;;;7.97;87.08
75221;BME280;63802;53.232;6.570;2023-02-23T10:57:45;101619.84;;;7.96;87.25
75221;BME280;63802;53.232;6.570;2023-02-23T11:02:46;101632.00;;;7.90;86.95
75221;BME280;63802;53.232;6.570;2023-02-23T11:05:36;101632.31;;;7.97;86.58
75221;BME280;63802;53.232;6.570;2023-02-23T11:08:18;101628.13;;;8.08;86.35
75221;BME280;63802;53.232;6.570;2023-02-23T11:11:01;101626.81;;;8.15;85.86
75221;BME280;63802;53.232;6.570;2023-02-23T11:13:36;101623.88;;;8.37;85.65
75221;BME280;63802;53.232;6.570;2023-02-23T11:18:29;101632.72;;;8.17;84.93
75221;BME280;63802;53.232;6.570;2023-02-23T11:20:55;101639.09;;;8.21;84.90
75221;BME280;63802;53.232;6.570;2023-02-23T11:23:26;101639.59;;;8.23;85.04
75221;BME280;63802;53.232;6.570;2023-02-23T11:25:59;101645.19;;;8.18;84.94
75221;BME280;63802;53.232;6.570;2023-02-23T11:28:41;101633.56;;;8.08;85.12
75221;BME280;63802;53.232;6.570;2023-02-23T11:31:16;101630.72;;;7.96;85.11
75221;BME280;63802;53.232;6.570;2023-02-23T11:33:44;101617.94;;;7.88;85.06
75221;BME280;63802;53.232;6.570;2023-02-23T11:36:15;101632.31;;;7.97;85.08
75221;BME280;63802;53.232;6.570;2023-02-23T11:38:43;101632.13;;;8.02;85.43
75221;BME280;63802;53.232;6.570;2023-02-23T11:41:21;101633.63;;;7.91;85.80
75221;BME280;63802;53.232;6.570;2023-02-23T11:43:48;101630.38;;;7.98;85.68
75221;BME280;63802;53.232;6.570;2023-02-23T11:46:15;101626.41;;;7.95;86.12
75221;BME280;63802;53.232;6.570;2023-02-23T11:48:47;101627.03;;;7.92;86.52
75221;BME280;63802;53.232;6.570;2023-02-23T11:51:29;101631.88;;;7.87;86.50
75221;BME280;63802;53.232;6.570;2023-02-23T11:53:56;101633.63;;;7.91;87.12
75221;BME280;63802;53.232;6.570;2023-02-23T11:56:23;101634.56;;;7.95;87.24
75221;BME280;63802;53.232;6.570;2023-02-23T11:59:02;101619.50;;;7.98;86.98
75221;BME280;63802;53.232;6.570;2023-02-23T12:01:37;101619.84;;;7.96;87.61
75221;BME280;63802;53.232;6.570;2023-02-23T12:04:31;101629.28;;;7.90;87.63
75221;BME280;63802;53.232;6.570;2023-02-23T12:10:09;101629.81;;;7.75;88.22
75221;BME280;63802;53.232;6.570;2023-02-23T12:12:45;101637.94;;;7.75;88.79
75221;BME280;63802;53.232;6.570;2023-02-23T12:15:23;101626.63;;;7.73;89.20
75221;BME280;63802;53.232;6.570;2023-02-23T12:17:55;101633.66;;;7.74;88.78
75221;BME280;63802;53.232;6.570;2023-02-23T12:20:29;101634.59;;;7.78;88.91
75221;BME280;63802;53.232;6.570;2023-02-23T12:23:04;101632.03;;;7.82;88.92
75221;BME280;63802;53.232;6.570;2023-02-23T12:25:49;101627.72;;;7.81;89.12
75221;BME280;63802;53.232;6.570;2023-02-23T12:31:01;101637.66;;;7.77;89.72
75221;BME280;63802;53.232;6.570;2023-02-23T12:33:37;101638.44;;;7.77;89.44
75221;BME280;63802;53.232;6.570;2023-02-23T12:41:42;101628.53;;;7.81;89.98
75221;BME280;63802;53.232;6.570;2023-02-23T12:44:33;101630.78;;;7.79;90.08
75221;BME280;63802;53.232;6.570;2023-02-23T12:47:06;101638.25;;;7.82;90.32
75221;BME280;63802;53.232;6.570;2023-02-23T12:49:40;101628.88;;;7.71;90.71
75221;BME280;63802;53.232;6.570;2023-02-23T12:52:13;101644.50;;;7.91;90.74
75221;BME280;63802;53.232;6.570;2023-02-23T12:54:41;101641.78;;;7.83;90.73
75221;BME280;63802;53.232;6.570;2023-02-23T12:57:32;101644.81;;;7.81;90.78
75221;BME280;63802;53.232;6.570;2023-02-23T13:00:34;101644.66;;;7.78;90.83
75221;BME280;63802;53.232;6.570;2023-02-23T13:05:50;101650.16;;;7.26;91.08
75221;BME280;63802;53.232;6.570;2023-02-23T13:11:18;101667.38;;;6.96;91.84
75221;BME280;63802;53.232;6.570;2023-02-23T13:13:58;101653.47;;;6.81;91.60
75221;BME280;63802;53.232;6.570;2023-02-23T13:16:33;101659.72;;;6.81;91.31
75221;BME280;63802;53.232;6.570;2023-02-23T13:19:24;101667.19;;;6.75;91.37
75221;BME280;63802;53.232;6.570;2023-02-23T13:21:56;101666.72;;;6.73;91.81
75221;BME280;63802;53.232;6.570;2023-02-23T13:24:26;101666.22;;;6.71;91.73
75221;BME280;63802;53.232;6.570;2023-02-23T13:29:37;101650.59;;;6.68;91.64
75221;BME280;63802;53.232;6.570;2023-02-23T13:32:15;101671.50;;;6.77;91.80
75221;BME280;63802;53.232;6.570;2023-02-23T13:34:47;101668.16;;;6.80;91.41
75221;BME280;63802;53.232;6.570;2023-02-23T13:37:18;101671.00;;;6.74;91.58
75221;BME280;63802;53.232;6.570;2023-02-23T13:39:54;101668.81;;;6.77;91.79
75221;BME280;63802;53.232;6.570;2023-02-23T13:42:29;101684.72;;;6.69;91.75
75221;BME280;63802;53.232;6.570;2023-02-23T13:45:21;101683.28;;;6.63;92.04
75221;BME280;63802;53.232;6.570;2023-02-23T13:54:21;101691.34;;;6.46;91.99
75221;BME280;63802;53.232;6.570;2023-02-23T13:56:55;101692.69;;;6.57;91.75
75221;BME280;63802;53.232;6.570;2023-02-23T13:59:24;101701.78;;;6.61;91.83
75221;BME280;63802;53.232;6.570;2023-02-23T14:01:54;101701.44;;;6.54;91.76
75221;BME280;63802;53.232;6.570;2023-02-23T14:04:22;101691.97;;;6.43;91.61
75221;BME280;63802;53.232;6.570;2023-02-23T14:07:10;101705.84;;;6.42;91.86
75221;BME280;63802;53.232;6.570;2023-02-23T14:09:48;101711.06;;;6.38;91.94
75221;BME280;63802;53.232;6.570;2023-02-23T14:12:31;101690.28;;;6.25;92.23
75221;BME280;63802;53.232;6.570;2023-02-23T14:17:58;101717.63;;;6.37;91.99
75221;BME280;63802;53.232;6.570;2023-02-23T14:23:35;101720.59;;;6.27;91.62
75221;BME280;63802;53.232;6.570;2023-02-23T14:26:37;101720.78;;;6.31;91.76
75221;BME280;63802;53.232;6.570;2023-02-23T14:34:53;101710.56;;;6.28;90.63
75221;BME280;63802;53.232;6.570;2023-02-23T14:37:34;101716.47;;;6.30;90.48
75221;BME280;63802;53.232;6.570;2023-02-23T14:40:09;101723.16;;;6.32;89.89
75221;BME280;63802;53.232;6.570;2023-02-23T14:42:37;101726.81;;;6.28;90.00
75221;BME280;63802;53.232;6.570;2023-02-23T14:45:35;101707.94;;;6.14;89.34
75221;BME280;63802;53.232;6.570;2023-02-23T14:48:15;101729.31;;;6.16;89.07
75221;BME280;63802;53.232;6.570;2023-02-23T14:50:42;101732.88;;;6.02;88.74